Search for airport 
image banner adimage banner adimage banner ad
image banner ad

KAVP - Wilkes-Barre/Scranton Intl

Located in Wilkes-Barre/Scranton, United States

ICAO - AVP, IATA - AVP

Data provided by Airmate  

General information

Coordinates: N41°20'18" W75°43'24"
Elevation is 962 feet MSL.
Magnetic variation is -11° East
View others Airports in Pennsylvania

Operational data

Special qualification required
Current time UTC:
Current local time:
Weather
METAR: KAVP 182354Z 25003KT 10SM CLR 24/07 A3025 RMK AO2 SLP237 T02440072 10272 20244 55001
TAF: KAVP 182334Z 1900/1924 VRB03KT P6SM FEW250 FM191600 31006KT P6SM SKC
View NOTAMs / SUP AIP / TFR affecting this airport [VIEW]
Communications frequencies: [VIEW]

Runways:

RWY identifierQFULength (ft)Width (ft)SurfaceLDA (ft)
0433°7502150ASPH7501
22213°7502150ASPH7501
1092°4300150ASPH4300
28272°4300150ASPH4300

Airport contact information

Address: Wilkes-Barre/Scranton United States

Other aviation service providers

Flight schools

Aviation Technologies, Inc.

Aviation Technologies, Inc.

Satellite view of KAVP